Time;durP1;ratioP1;P1;durP2;ratioP2;P2;SDS_P1;SDS_P2;PMS_P1;PMS_P2;Temp;Humidity;BMP_temperature;BMP_pressure;BME280_temperature;BME280_humidity;BME280_pressure;Samples;Min_cycle;Max_cycle;Signal;HPM_P1;HPM_P2
2022/08/30 00:02:51;;;;;;;3.30;0.77;;;;;;;11.85;100.00;101634.25;5034606;28;20044;-53
2022/08/30 00:05:16;;;;;;;3.25;0.95;;;;;;;11.84;100.00;101629.09;5034100;28;20465;-51
2022/08/30 00:07:42;;;;;;;4.10;1.00;;;;;;;11.81;100.00;101626.78;5035998;28;20041;-49
2022/08/30 00:10:07;;;;;;;3.42;0.63;;;;;;;11.77;100.00;101628.94;5033066;28;20123;-49
2022/08/30 00:12:32;;;;;;;2.58;0.60;;;;;;;11.71;100.00;101624.31;5032290;28;20054;-51
2022/08/30 00:14:58;;;;;;;0.68;0.40;;;;;;;11.67;100.00;101634.47;5043676;28;20035;-53
2022/08/30 00:17:23;;;;;;;4.90;1.52;;;;;;;11.65;100.00;101617.03;5039608;28;20031;-50
2022/08/30 00:19:49;;;;;;;8.70;1.08;;;;;;;11.61;100.00;101626.34;5043737;28;20536;-50
2022/08/30 00:22:14;;;;;;;3.75;0.35;;;;;;;11.58;100.00;101625.69;5038936;28;20060;-48
2022/08/30 00:24:40;;;;;;;1.38;0.88;;;;;;;11.67;100.00;101620.34;5048397;28;20035;-49
2022/08/30 00:27:05;;;;;;;1.90;0.55;;;;;;;11.73;100.00;101611.69;5036378;28;20041;-53
2022/08/30 00:29:30;;;;;;;1.23;0.80;;;;;;;11.74;100.00;101613.34;5042038;28;20502;-52
2022/08/30 00:31:56;;;;;;;1.00;0.30;;;;;;;11.69;100.00;101608.53;5043203;28;20039;-52
2022/08/30 00:34:21;;;;;;;3.10;0.63;;;;;;;11.67;100.00;101618.53;5038212;28;20034;-52
2022/08/30 00:36:46;;;;;;;3.03;0.95;;;;;;;11.68;100.00;101614.03;5035892;28;20021;-53
2022/08/30 00:39:12;;;;;;;1.23;0.50;;;;;;;11.63;100.00;101611.06;5038825;28;20040;-50
2022/08/30 00:41:38;;;;;;;0.98;0.98;;;;;;;11.57;100.00;101618.72;5041770;28;20406;-51
2022/08/30 00:44:03;;;;;;;5.93;1.40;;;;;;;11.53;100.00;101619.22;5039514;28;20033;-49
2022/08/30 00:46:29;;;;;;;1.60;0.40;;;;;;;11.49;100.00;101628.53;5034055;28;20033;-52
2022/08/30 00:48:55;;;;;;;1.95;0.75;;;;;;;11.44;100.00;101626.38;5036730;28;20033;-49
2022/08/30 00:51:23;;;;;;;2.58;0.70;;;;;;;11.41;100.00;101624.06;5038896;28;20041;-49
2022/08/30 00:53:53;;;;;;;2.15;0.20;;;;;;;11.35;100.00;101630.84;5034521;28;20037;-52
2022/08/30 00:56:20;;;;;;;0.53;0.20;;;;;;;11.29;100.00;101622.75;5034137;28;20043;-51
2022/08/30 00:58:52;;;;;;;0.52;0.52;;;;;;;11.30;100.00;101632.38;5030986;28;20032;-50
2022/08/30 01:01:19;;;;;;;2.45;1.08;;;;;;;11.29;100.00;101641.34;5039519;28;20045;-51
2022/08/30 01:03:45;;;;;;;1.75;0.43;;;;;;;11.25;100.00;101635.50;5038593;28;20025;-49
2022/08/30 01:06:14;;;;;;;3.83;0.63;;;;;;;11.21;100.00;101636.03;5045912;28;20047;-50
2022/08/30 01:08:40;;;;;;;8.93;2.17;;;;;;;11.16;100.00;101633.88;5034918;28;20033;-48
2022/08/30 01:11:06;;;;;;;1.38;0.40;;;;;;;11.18;100.00;101639.84;5042833;28;20132;-49
2022/08/30 01:13:33;;;;;;;1.65;0.85;;;;;;;11.15;100.00;101645.47;5032446;28;20033;-49
2022/08/30 01:16:01;;;;;;;1.95;1.00;;;;;;;11.10;100.00;101642.50;5031424;28;20029;-51
2022/08/30 01:18:27;;;;;;;3.60;0.43;;;;;;;11.06;100.00;101651.78;5029222;28;20029;-50
2022/08/30 01:21:14;;;;;;;2.92;0.15;;;;;;;11.03;100.00;101650.31;5038816;28;20363;-53
2022/08/30 01:23:43;;;;;;;5.07;0.68;;;;;;;11.04;100.00;101654.59;5039982;28;20327;-51
2022/08/30 01:26:09;;;;;;;1.10;0.30;;;;;;;11.05;100.00;101655.47;5034893;28;20060;-54
2022/08/30 01:28:35;;;;;;;2.05;0.45;;;;;;;11.00;100.00;101655.94;5037658;28;20021;-47
2022/08/30 01:31:00;;;;;;;3.40;0.93;;;;;;;11.01;100.00;101659.44;5031515;28;20048;-49
2022/08/30 01:33:26;;;;;;;4.18;0.50;;;;;;;11.00;100.00;101655.13;5033525;28;20095;-51
2022/08/30 01:35:59;;;;;;;0.63;0.20;;;;;;;10.93;100.00;101644.31;5031022;28;20043;-48
2022/08/30 01:38:38;;;;;;;4.68;0.88;;;;;;;10.82;100.00;101649.97;5029838;28;20056;-49
2022/08/30 01:41:25;;;;;;;2.25;0.35;;;;;;;10.84;100.00;101654.09;5034007;28;20040;-52
2022/08/30 01:43:53;;;;;;;1.13;0.32;;;;;;;10.85;100.00;101654.94;5035474;28;20498;-48
2022/08/30 01:46:23;;;;;;;3.10;0.38;;;;;;;10.84;100.00;101650.59;5039849;28;20037;-52
2022/08/30 01:48:49;;;;;;;1.15;0.43;;;;;;;10.76;100.00;101643.47;5031562;28;20029;-51
2022/08/30 01:51:16;;;;;;;5.45;0.30;;;;;;;10.77;100.00;101649.63;5040621;28;20035;-53
2022/08/30 01:53:43;;;;;;;0.40;0.32;;;;;;;10.70;100.00;101646.78;5037340;28;20032;-50
2022/08/30 01:56:10;;;;;;;3.00;0.93;;;;;;;10.71;100.00;101645.78;5038850;28;20036;-50
2022/08/30 01:58:36;;;;;;;1.65;0.70;;;;;;;10.70;100.00;101646.78;5035621;28;20030;-49
2022/08/30 02:01:08;;;;;;;2.38;0.98;;;;;;;10.71;100.00;101648.44;5039910;28;20052;-50
2022/08/30 02:03:35;;;;;;;0.47;0.20;;;;;;;10.68;100.00;101652.22;5040095;28;20036;-52
2022/08/30 02:06:06;;;;;;;5.55;1.20;;;;;;;10.66;100.00;101648.94;5029312;28;20037;-50
2022/08/30 02:08:32;;;;;;;1.00;0.43;;;;;;;10.64;100.00;101656.22;5042478;28;20025;-50
2022/08/30 02:10:58;;;;;;;1.60;0.50;;;;;;;10.63;100.00;101664.34;5038623;28;20040;-51
2022/08/30 02:13:25;;;;;;;1.65;0.85;;;;;;;10.57;100.00;101657.03;5031683;28;20045;-54
2022/08/30 02:15:50;;;;;;;2.75;0.45;;;;;;;10.48;100.00;101653.53;5044538;28;20041;-53
2022/08/30 02:18:16;;;;;;;1.95;0.70;;;;;;;10.43;100.00;101655.84;5029720;28;20358;-51
2022/08/30 02:20:41;;;;;;;0.73;0.22;;;;;;;10.38;100.00;101658.97;5035449;28;20051;-48
2022/08/30 02:23:06;;;;;;;1.00;0.30;;;;;;;10.36;100.00;101654.81;5027872;28;20021;-51
2022/08/30 02:25:32;;;;;;;2.15;0.55;;;;;;;10.33;100.00;101661.28;5045641;28;20275;-54
2022/08/30 02:27:57;;;;;;;0.90;0.60;;;;;;;10.30;100.00;101656.31;5044192;28;20383;-55
2022/08/30 02:30:22;;;;;;;2.30;0.60;;;;;;;10.29;100.00;101664.41;5038806;28;20033;-49
2022/08/30 02:32:48;;;;;;;5.47;0.90;;;;;;;10.26;100.00;101662.88;5040595;28;20032;-53
2022/08/30 02:35:13;;;;;;;1.40;0.40;;;;;;;10.25;100.00;101663.88;5037573;28;20482;-52
2022/08/30 02:37:39;;;;;;;1.13;0.40;;;;;;;10.21;100.00;101658.03;5032887;28;20367;-49
2022/08/30 02:40:06;;;;;;;1.20;0.93;;;;;;;10.19;100.00;101662.66;5040066;28;20021;-48
2022/08/30 02:42:32;;;;;;;0.22;0.22;;;;;;;10.17;100.00;101664.66;5038734;28;20029;-48
2022/08/30 02:44:58;;;;;;;4.13;0.75;;;;;;;10.16;100.00;101662.16;5047066;28;20037;-54
2022/08/30 02:47:23;;;;;;;0.90;0.68;;;;;;;10.15;100.00;101663.16;5035562;28;20029;-51
2022/08/30 02:49:49;;;;;;;2.33;0.63;;;;;;;10.14;100.00;101664.13;5040361;28;20442;-49
2022/08/30 02:52:14;;;;;;;2.00;0.47;;;;;;;10.12;100.00;101659.03;5040261;28;20033;-48
2022/08/30 02:54:39;;;;;;;3.00;0.85;;;;;;;10.11;100.00;101664.47;5033428;28;20020;-54
2022/08/30 02:57:05;;;;;;;3.78;0.93;;;;;;;10.13;100.00;101665.16;5037981;28;20040;-51
2022/08/30 02:59:32;;;;;;;1.67;0.70;;;;;;;10.19;100.00;101659.19;5042189;28;20037;-52
2022/08/30 03:01:57;;;;;;;1.65;0.65;;;;;;;10.26;100.00;101662.88;5038090;28;20418;-53
2022/08/30 03:04:23;;;;;;;1.55;0.98;;;;;;;10.31;100.00;101671.22;5036898;28;20044;-54
2022/08/30 03:06:48;;;;;;;1.60;0.63;;;;;;;10.34;100.00;101670.88;5041945;28;20029;-48
2022/08/30 03:09:13;;;;;;;1.75;0.35;;;;;;;10.37;100.00;101661.78;5039189;28;20037;-53
2022/08/30 03:11:39;;;;;;;10.15;1.45;;;;;;;10.36;100.00;101660.13;5037726;28;20076;-52
2022/08/30 03:14:05;;;;;;;0.98;0.75;;;;;;;10.36;100.00;101668.09;5032673;28;20079;-51
2022/08/30 03:16:30;;;;;;;2.67;0.40;;;;;;;10.36;100.00;101666.25;5041710;28;20082;-48
2022/08/30 03:18:55;;;;;;;2.03;0.70;;;;;;;10.40;100.00;101672.91;5041076;28;20071;-50
2022/08/30 03:21:21;;;;;;;4.40;0.55;;;;;;;10.47;100.00;101673.91;5048115;28;20029;-51
2022/08/30 03:23:46;;;;;;;2.50;0.77;;;;;;;10.54;100.00;101665.31;5045801;28;20032;-49
2022/08/30 03:26:13;;;;;;;1.73;0.52;;;;;;;10.61;100.00;101661.88;5036099;28;20021;-50
2022/08/30 03:28:39;;;;;;;2.20;0.50;;;;;;;10.72;100.00;101665.19;5033067;28;20036;-50
2022/08/30 03:31:05;;;;;;;1.85;0.80;;;;;;;10.79;100.00;101656.44;5044520;28;20029;-50
2022/08/30 03:33:30;;;;;;;2.40;0.40;;;;;;;10.79;100.00;101661.72;5036577;28;20083;-50
2022/08/30 03:35:56;;;;;;;1.10;0.43;;;;;;;10.78;100.00;101656.56;5045890;28;20037;-53
2022/08/30 03:38:21;;;;;;;0.77;0.52;;;;;;;10.74;100.00;101653.44;5040459;28;20037;-52
2022/08/30 03:40:47;;;;;;;8.68;0.68;;;;;;;10.70;100.00;101652.09;5043481;28;20033;-51
2022/08/30 03:43:12;;;;;;;0.98;0.55;;;;;;;10.66;100.00;101651.59;5045675;28;20454;-53
2022/08/30 03:45:38;;;;;;;5.10;0.30;;;;;;;10.68;100.00;101646.94;5031441;28;20036;-49
2022/08/30 03:48:04;;;;;;;1.50;0.30;;;;;;;10.73;100.00;101646.44;5042892;28;20025;-48
2022/08/30 03:50:29;;;;;;;1.42;0.38;;;;;;;10.64;100.00;101648.28;5046181;28;20063;-53
2022/08/30 03:52:55;;;;;;;2.92;0.70;;;;;;;10.55;100.00;101646.56;5044544;28;20039;-52
2022/08/30 03:55:21;;;;;;;0.68;0.22;;;;;;;10.57;100.00;101646.44;5037758;28;20422;-55
2022/08/30 03:57:46;;;;;;;0.47;0.30;;;;;;;10.67;100.00;101642.63;5039106;28;20435;-51
2022/08/30 04:00:15;;;;;;;0.82;0.43;;;;;;;10.70;100.00;101644.94;5036092;28;20041;-49
2022/08/30 04:02:40;;;;;;;2.22;0.50;;;;;;;10.62;100.00;101644.94;5032302;28;20045;-53
2022/08/30 04:05:07;;;;;;;1.35;0.50;;;;;;;10.58;100.00;101648.06;5041063;28;20033;-49
2022/08/30 04:07:33;;;;;;;2.58;0.43;;;;;;;10.57;100.00;101639.28;5036875;28;20036;-50
2022/08/30 04:09:58;;;;;;;9.55;0.60;;;;;;;10.48;100.00;101638.47;5034753;28;20357;-50
2022/08/30 04:12:23;;;;;;;1.27;0.82;;;;;;;10.48;100.00;101637.63;5035676;28;20041;-49
2022/08/30 04:14:49;;;;;;;3.40;0.88;;;;;;;10.48;100.00;101640.28;5037020;28;20113;-50
2022/08/30 04:17:14;;;;;;;3.60;0.95;;;;;;;10.44;100.00;101638.94;5033593;28;20475;-51
2022/08/30 04:19:39;;;;;;;2.05;0.43;;;;;;;10.41;100.00;101637.44;5035804;28;20063;-51
2022/08/30 04:22:05;;;;;;;1.25;0.68;;;;;;;10.41;100.00;101634.78;5041051;28;20291;-51
2022/08/30 04:24:31;;;;;;;3.08;0.50;;;;;;;10.44;100.00;101631.81;5038601;28;20540;-49
2022/08/30 04:26:57;;;;;;;1.05;0.70;;;;;;;10.44;100.00;101628.34;5045815;28;20033;-51
2022/08/30 04:29:22;;;;;;;1.65;0.60;;;;;;;10.36;100.00;101625.66;5033559;28;20060;-53
2022/08/30 04:31:47;;;;;;;4.88;1.63;;;;;;;10.30;100.00;101631.59;5041790;28;20033;-51
2022/08/30 04:34:13;;;;;;;2.17;0.43;;;;;;;10.26;100.00;101628.41;5043969;28;20060;-53
2022/08/30 04:36:39;;;;;;;2.13;0.68;;;;;;;10.31;100.00;101633.28;5037721;28;20109;-52
2022/08/30 04:39:05;;;;;;;0.63;0.38;;;;;;;10.35;100.00;101626.63;5031132;28;20508;-53
2022/08/30 04:41:30;;;;;;;1.02;0.50;;;;;;;10.35;100.00;101637.25;5037163;28;20061;-49
2022/08/30 04:43:56;;;;;;;2.42;1.33;;;;;;;10.36;100.00;101638.91;5033904;28;20051;-55
2022/08/30 04:46:21;;;;;;;1.00;0.20;;;;;;;10.41;100.00;101636.63;5040542;28;20327;-51
2022/08/30 04:48:47;;;;;;;2.90;0.22;;;;;;;10.37;100.00;101627.31;5038906;28;20604;-50
2022/08/30 04:51:15;;;;;;;3.58;0.40;;;;;;;10.35;100.00;101638.09;5042439;28;20041;-54
2022/08/30 04:53:41;;;;;;;3.60;1.45;;;;;;;10.33;100.00;101631.28;5047738;28;20453;-49
2022/08/30 04:56:10;;;;;;;1.75;0.77;;;;;;;10.34;100.00;101639.06;5033974;28;20357;-49
2022/08/30 04:58:35;;;;;;;2.20;0.60;;;;;;;10.35;100.00;101648.69;5041887;28;20029;-55
2022/08/30 05:01:01;;;;;;;1.38;0.28;;;;;;;10.33;100.00;101649.84;5035728;28;20543;-49
2022/08/30 05:03:26;;;;;;;2.05;0.77;;;;;;;10.36;100.00;101641.56;5041143;28;20501;-50
2022/08/30 05:05:52;;;;;;;2.20;0.30;;;;;;;10.36;100.00;101650.34;5036696;28;20029;-51
2022/08/30 05:08:19;;;;;;;4.70;0.32;;;;;;;10.39;100.00;101650.03;5043099;28;20163;-51
2022/08/30 05:10:48;;;;;;;0.65;0.25;;;;;;;10.41;100.00;101652.53;5031271;28;20152;-50
2022/08/30 05:13:14;;;;;;;4.30;1.27;;;;;;;10.37;100.00;101648.53;5040225;28;20045;-54
2022/08/30 05:15:40;;;;;;;2.67;0.30;;;;;;;10.35;100.00;101648.69;5032551;28;20040;-52
2022/08/30 05:18:07;;;;;;;1.58;1.05;;;;;;;10.36;100.00;101646.88;5035678;28;20041;-51
2022/08/30 05:20:34;;;;;;;5.95;0.47;;;;;;;10.36;100.00;101652.19;5034934;28;20159;-52
2022/08/30 05:22:59;;;;;;;4.60;1.17;;;;;;;10.43;100.00;101650.53;5045967;28;20087;-54
2022/08/30 05:25:28;;;;;;;1.98;0.38;;;;;;;10.50;100.00;101654.19;5035726;28;20033;-54
2022/08/30 05:27:54;;;;;;;8.20;0.88;;;;;;;10.67;100.00;101652.41;5042209;28;20130;-52
2022/08/30 05:30:21;;;;;;;2.47;0.60;;;;;;;10.68;100.00;101660.19;5045901;28;20059;-55
2022/08/30 05:32:46;;;;;;;4.57;0.50;;;;;;;10.66;100.00;101662.22;5041985;28;20035;-52
2022/08/30 05:35:14;;;;;;;6.60;1.75;;;;;;;10.70;100.00;101652.91;5038166;28;20474;-51
2022/08/30 05:37:40;;;;;;;2.15;0.45;;;;;;;10.76;100.00;101653.25;5033271;28;20047;-54
2022/08/30 05:40:07;;;;;;;3.67;0.68;;;;;;;10.78;100.00;101653.94;5037253;28;20443;-51
2022/08/30 05:42:33;;;;;;;0.50;0.30;;;;;;;10.84;100.00;101656.75;5030266;28;20025;-51
2022/08/30 05:44:58;;;;;;;3.90;0.30;;;;;;;10.89;100.00;101656.25;5046044;28;20139;-49
2022/08/30 05:47:23;;;;;;;2.97;0.57;;;;;;;11.02;100.00;101661.91;5029678;28;20032;-48
2022/08/30 05:49:49;;;;;;;3.70;0.60;;;;;;;11.18;100.00;101665.53;5040354;28;20021;-52
2022/08/30 05:52:17;;;;;;;4.30;1.92;;;;;;;11.17;100.00;101669.22;5043085;28;20055;-54
2022/08/30 05:54:51;;;;;;;1.75;0.65;;;;;;;11.23;100.00;101679.16;5041490;28;20100;-51
2022/08/30 05:57:17;;;;;;;2.80;1.25;;;;;;;11.26;100.00;101673.53;5035185;28;20033;-48
2022/08/30 05:59:43;;;;;;;4.40;1.05;;;;;;;11.23;100.00;101663.22;5033756;28;20063;-48
2022/08/30 06:02:08;;;;;;;1.95;0.57;;;;;;;11.25;100.00;101669.22;5035026;28;20029;-49
2022/08/30 06:04:35;;;;;;;2.40;0.88;;;;;;;11.30;100.00;101670.38;5035949;28;20028;-48
2022/08/30 06:07:01;;;;;;;3.95;0.30;;;;;;;11.36;100.00;101666.22;5030086;28;20124;-51
2022/08/30 06:09:27;;;;;;;4.38;1.50;;;;;;;11.41;100.00;101661.25;5042957;28;20107;-48
2022/08/30 06:11:52;;;;;;;1.65;0.40;;;;;;;11.45;100.00;101661.72;5037434;28;20037;-49
2022/08/30 06:14:17;;;;;;;1.70;0.45;;;;;;;11.58;100.00;101670.84;5030273;28;20370;-54
2022/08/30 06:16:46;;;;;;;5.93;1.38;;;;;;;11.65;100.00;101667.53;5034174;28;20044;-49
2022/08/30 06:19:12;;;;;;;9.10;0.85;;;;;;;11.76;100.00;101667.16;5036648;28;20036;-49
2022/08/30 06:21:39;;;;;;;5.22;0.55;;;;;;;11.82;100.00;101663.81;5049124;28;20029;-51
2022/08/30 06:24:06;;;;;;;0.55;0.30;;;;;;;11.90;100.00;101668.31;5043239;28;20033;-49
2022/08/30 06:26:40;;;;;;;1.73;0.40;;;;;;;11.98;100.00;101669.13;5044320;28;20022;-46
2022/08/30 06:29:05;;;;;;;2.85;0.80;;;;;;;11.99;100.00;101684.06;5038988;28;20029;-54
2022/08/30 06:31:31;;;;;;;2.50;0.47;;;;;;;11.99;100.00;101677.91;5040858;28;20381;-47
2022/08/30 06:33:56;;;;;;;1.55;0.28;;;;;;;12.06;100.00;101667.44;5049414;28;20025;-47
2022/08/30 06:36:24;;;;;;;2.40;0.63;;;;;;;12.14;100.00;101672.72;5029180;28;20194;-52
2022/08/30 06:38:52;;;;;;;16.42;0.80;;;;;;;12.31;100.00;101676.94;5038536;28;20025;-50
2022/08/30 06:41:21;;;;;;;3.38;0.43;;;;;;;12.48;100.00;101666.25;5039259;28;20045;-49
2022/08/30 06:43:47;;;;;;;6.43;0.75;;;;;;;12.63;100.00;101673.31;5041047;28;20085;-48
2022/08/30 06:46:19;;;;;;;3.38;0.20;;;;;;;12.76;100.00;101670.06;5039328;28;20021;-51
2022/08/30 06:48:45;;;;;;;7.25;0.40;;;;;;;12.89;100.00;101669.50;5041725;28;20026;-55
2022/08/30 06:51:10;;;;;;;0.80;0.28;;;;;;;13.13;100.00;101668.47;5023360;28;20040;-50
2022/08/30 06:53:36;;;;;;;10.07;1.10;;;;;;;13.31;100.00;101670.84;5041090;28;20033;-52
2022/08/30 06:56:06;;;;;;;3.35;0.55;;;;;;;13.38;100.00;101668.31;5040853;28;20040;-48
2022/08/30 06:58:32;;;;;;;1.35;0.55;;;;;;;13.43;100.00;101658.75;5044618;28;20513;-51
2022/08/30 07:00:57;;;;;;;2.08;0.40;;;;;;;13.48;100.00;101667.03;5039645;28;20029;-48
2022/08/30 07:03:26;;;;;;;7.32;0.30;;;;;;;13.55;100.00;101656.47;5039174;28;20033;-53
2022/08/30 07:05:52;;;;;;;3.60;0.20;;;;;;;13.64;100.00;101663.38;5031591;28;20111;-49
2022/08/30 07:08:17;;;;;;;2.70;0.50;;;;;;;13.70;100.00;101662.63;5042545;28;20488;-51
2022/08/30 07:10:43;;;;;;;1.60;0.30;;;;;;;13.79;100.00;101668.72;5039842;28;20462;-55
2022/08/30 07:13:08;;;;;;;2.38;0.43;;;;;;;13.91;100.00;101675.25;5038596;28;20045;-52
2022/08/30 07:15:35;;;;;;;4.32;0.93;;;;;;;14.05;100.00;101662.94;5039470;28;20091;-52
2022/08/30 07:20:45;;;;;;;3.78;0.65;;;;;;;14.32;100.00;101664.06;5040269;28;20116;-49
2022/08/30 07:23:11;;;;;;;0.65;0.20;;;;;;;14.52;100.00;101664.31;5037801;28;20108;-51
2022/08/30 07:25:38;;;;;;;2.90;0.55;;;;;;;14.66;100.00;101645.81;5028825;28;20025;-51
2022/08/30 07:28:05;;;;;;;5.60;0.73;;;;;;;14.75;100.00;101647.34;5047562;28;20063;-48
2022/08/30 07:30:33;;;;;;;5.15;0.65;;;;;;;14.79;100.00;101646.78;5042030;28;20029;-51
2022/08/30 07:32:59;;;;;;;3.47;0.20;;;;;;;14.83;100.00;101655.22;5034310;28;20493;-50
2022/08/30 07:35:24;;;;;;;4.70;1.02;;;;;;;14.86;100.00;101651.34;5040741;28;20064;-54
2022/08/30 07:37:49;;;;;;;2.47;0.30;;;;;;;14.90;100.00;101650.78;5030895;28;20104;-54
2022/08/30 07:40:15;;;;;;;1.67;0.60;;;;;;;15.02;100.00;101651.06;5048152;28;20086;-51
2022/08/30 07:42:41;;;;;;;5.68;0.50;;;;;;;15.13;100.00;101653.25;5030527;28;20025;-56
2022/08/30 07:45:07;;;;;;;6.03;1.98;;;;;;;15.29;100.00;101649.47;5039320;28;20112;-55
2022/08/30 07:47:33;;;;;;;4.72;0.40;;;;;;;15.40;100.00;101643.59;5033827;28;20080;-54
2022/08/30 07:49:59;;;;;;;3.55;1.35;;;;;;;15.43;100.00;101634.34;5040019;28;20025;-51
2022/08/30 07:52:26;;;;;;;4.30;0.43;;;;;;;15.45;100.00;101643.81;5030287;28;20743;-54
2022/08/30 07:54:54;;;;;;;2.22;0.20;;;;;;;15.49;100.00;101641.59;5037278;28;20032;-52
2022/08/30 07:57:19;;;;;;;6.32;0.57;;;;;;;15.51;100.00;101642.22;5040039;28;20057;-50
2022/08/30 07:59:45;;;;;;;7.30;0.80;;;;;;;15.57;100.00;101643.31;5047996;28;20052;-49
2022/08/30 08:02:10;;;;;;;5.55;0.88;;;;;;;15.63;100.00;101639.84;5032681;28;20719;-52
2022/08/30 08:04:35;;;;;;;2.22;0.75;;;;;;;15.81;100.00;101644.72;5033959;28;21596;-53
2022/08/30 08:07:01;;;;;;;6.93;1.30;;;;;;;15.98;100.00;101637.16;5046785;28;20032;-49
2022/08/30 08:09:26;;;;;;;3.45;0.82;;;;;;;16.09;100.00;101634.75;5039240;28;20805;-53
2022/08/30 08:11:52;;;;;;;3.10;0.52;;;;;;;16.16;100.00;101640.16;5027622;28;20122;-52
2022/08/30 08:14:17;;;;;;;1.90;0.10;;;;;;;16.12;100.00;101630.88;5028970;28;20033;-49
2022/08/30 08:16:45;;;;;;;1.73;0.40;;;;;;;16.19;100.00;101634.41;5037413;28;20155;-50
2022/08/30 08:19:11;;;;;;;2.90;0.40;;;;;;;16.19;100.00;101636.25;5036681;28;20037;-48
2022/08/30 08:21:36;;;;;;;2.13;0.15;;;;;;;16.45;100.00;101627.50;5034656;28;20021;-51
2022/08/30 08:24:02;;;;;;;3.78;0.57;;;;;;;16.79;100.00;101629.22;5043443;28;20425;-53
2022/08/30 08:26:28;;;;;;;5.38;0.30;;;;;;;16.95;100.00;101625.31;5039961;28;20028;-53
2022/08/30 08:28:53;;;;;;;1.17;0.30;;;;;;;17.07;100.00;101614.81;5026572;28;20435;-48
2022/08/30 08:31:24;;;;;;;1.55;0.40;;;;;;;16.91;100.00;101616.03;5033765;28;20041;-49
2022/08/30 08:33:50;;;;;;;3.60;0.20;;;;;;;16.71;100.00;101621.34;5036549;28;20020;-47
2022/08/30 08:36:16;;;;;;;4.72;0.40;;;;;;;16.62;100.00;101631.41;5036337;28;20043;-53
2022/08/30 08:38:41;;;;;;;8.43;0.20;;;;;;;16.58;100.00;101624.84;5033159;28;20025;-52
2022/08/30 08:41:07;;;;;;;4.10;0.30;;;;;;;16.67;100.00;101631.63;5044167;28;20024;-55
2022/08/30 08:43:36;;;;;;;6.32;1.27;;;;;;;16.78;100.00;101617.69;5045905;28;20029;-54
2022/08/30 08:46:16;;;;;;;1.60;0.30;;;;;;;17.19;100.00;101624.72;5029504;28;20471;-49
2022/08/30 08:48:50;;;;;;;4.68;1.30;;;;;;;17.50;100.00;101615.16;5022169;28;20018;-54
2022/08/30 08:54:14;;;;;;;2.58;0.52;;;;;;;16.96;100.00;101606.38;5028983;28;20125;-53
2022/08/30 08:56:39;;;;;;;3.05;0.43;;;;;;;16.97;100.00;101610.69;5035506;28;20179;-53
2022/08/30 08:59:10;;;;;;;1.50;0.38;;;;;;;17.41;100.00;101613.75;5029563;28;20033;-55
2022/08/30 09:01:39;;;;;;;7.60;1.55;;;;;;;17.87;100.00;101605.63;5031944;28;21416;-53
2022/08/30 09:04:13;;;;;;;0.98;0.20;;;;;;;18.35;100.00;101608.91;5041699;28;20029;-52
2022/08/30 09:06:51;;;;;;;3.58;0.52;;;;;;;18.38;100.00;101587.00;5029171;28;20324;-56
2022/08/30 09:09:23;;;;;;;2.75;0.32;;;;;;;18.31;100.00;101597.78;5036834;28;20090;-53
2022/08/30 09:11:48;;;;;;;1.67;0.40;;;;;;;18.38;100.00;101603.09;5036150;28;20080;-52
2022/08/30 09:14:36;;;;;;;7.47;0.88;;;;;;;18.33;100.00;101603.78;5020521;28;20123;-53
2022/08/30 09:17:12;;;;;;;1.67;0.50;;;;;;;18.39;100.00;101612.81;5024166;28;20041;-46
2022/08/30 09:19:45;;;;;;;2.50;0.45;;;;;;;18.28;100.00;101592.84;5011591;28;21257;-52
2022/08/30 09:22:32;;;;;;;0.75;0.15;;;;;;;18.39;100.00;101597.53;5034537;28;20025;-55
2022/08/30 09:25:05;;;;;;;8.82;0.95;;;;;;;18.69;100.00;101597.75;5028646;28;20472;-48
2022/08/30 09:27:45;;;;;;;2.17;0.30;;;;;;;18.72;100.00;101578.50;5028214;28;20025;-51
2022/08/30 09:30:26;;;;;;;1.50;0.22;;;;;;;19.06;100.00;101587.16;5033221;28;20390;-51
2022/08/30 09:32:55;;;;;;;2.97;0.28;;;;;;;19.33;100.00;101579.63;5032620;28;20039;-53
2022/08/30 09:35:32;;;;;;;2.10;0.55;;;;;;;19.52;100.00;101585.06;5032458;28;20045;-51
2022/08/30 09:38:09;;;;;;;1.80;0.60;;;;;;;19.36;100.00;101578.38;5036530;28;20055;-49
2022/08/30 09:40:35;;;;;;;3.03;0.60;;;;;;;19.53;100.00;101573.25;5029707;28;20029;-59
2022/08/30 09:43:08;;;;;;;1.70;0.10;;;;;;;19.86;100.00;101569.38;5025298;28;20039;-51
2022/08/30 09:45:37;;;;;;;1.65;0.10;;;;;;;19.94;100.00;101569.06;5037262;28;20041;-52
2022/08/30 09:48:21;;;;;;;3.05;0.30;;;;;;;20.19;100.00;101575.13;5032095;28;20068;-51
2022/08/30 09:50:53;;;;;;;3.63;0.47;;;;;;;20.23;100.00;101570.94;5024692;28;20078;-50
2022/08/30 09:53:24;;;;;;;3.10;0.40;;;;;;;20.12;100.00;101574.41;5036769;28;20087;-54
2022/08/30 09:55:58;;;;;;;23.48;1.55;;;;;;;20.16;100.00;101570.22;5031016;28;20021;-48
2022/08/30 09:58:39;;;;;;;6.57;0.57;;;;;;;20.20;100.00;101565.19;5037495;28;20040;-50
2022/08/30 10:01:29;;;;;;;3.10;0.97;;;;;;;20.23;100.00;101573.63;5030187;28;20036;-53
2022/08/30 10:04:12;;;;;;;1.77;0.32;;;;;;;20.38;100.00;101577.78;5037206;28;20053;-50
2022/08/30 10:06:48;;;;;;;2.25;1.42;;;;;;;20.57;100.00;101582.06;5025467;28;20034;-52
2022/08/30 10:09:35;;;;;;;0.50;0.10;;;;;;;20.35;100.00;101576.38;5032296;28;20033;-52
2022/08/30 10:12:15;;;;;;;3.70;0.65;;;;;;;19.95;100.00;101584.97;5035852;28;20340;-50
2022/08/30 10:15:05;;;;;;;1.20;0.60;;;;;;;19.78;100.00;101595.53;5035828;28;20033;-56
2022/08/30 10:17:51;;;;;;;0.75;0.10;;;;;;;19.76;100.00;101597.63;5032919;28;20056;-50
2022/08/30 10:20:30;;;;;;;0.80;0.40;;;;;;;19.76;100.00;101594.94;5038736;28;20044;-49
2022/08/30 10:23:03;;;;;;;4.95;0.28;;;;;;;19.77;100.00;101596.59;5032546;28;20367;-52
2022/08/30 10:25:40;;;;;;;1.70;0.38;;;;;;;19.91;100.00;101593.75;5032569;28;20033;-52
2022/08/30 10:28:06;;;;;;;1.75;0.25;;;;;;;20.11;100.00;101594.31;5039684;28;20072;-51
2022/08/30 10:30:35;;;;;;;2.25;0.45;;;;;;;20.10;100.00;101591.84;5030267;28;20075;-54
2022/08/30 10:33:41;;;;;;;2.03;0.32;;;;;;;20.11;100.00;101588.06;5044629;28;20029;-52
2022/08/30 10:36:10;;;;;;;3.10;0.40;;;;;;;20.29;100.00;101595.28;5034554;28;20474;-54
2022/08/30 10:38:38;;;;;;;2.70;0.22;;;;;;;20.17;100.00;101582.63;5031604;28;20040;-51
2022/08/30 10:41:39;;;;;;;5.78;0.10;;;;;;;20.27;100.00;101582.06;5034630;28;20451;-54
2022/08/30 10:44:17;;;;;;;1.23;0.38;;;;;;;20.57;100.00;101578.56;5018544;28;20045;-51
2022/08/30 10:46:56;;;;;;;4.03;0.35;;;;;;;20.49;100.00;101576.97;5022535;28;20514;-50
2022/08/30 10:49:27;;;;;;;1.23;0.77;;;;;;;20.37;100.00;101576.97;5031787;28;20033;-50
2022/08/30 10:52:02;;;;;;;1.58;0.73;;;;;;;20.59;100.00;101579.97;5029885;28;20060;-56
2022/08/30 10:55:00;;;;;;;1.80;0.75;;;;;;;20.74;100.00;101584.09;5028771;28;20108;-50
2022/08/30 10:57:25;;;;;;;3.92;1.13;;;;;;;20.69;100.00;101577.53;5033490;28;20112;-51
2022/08/30 10:59:58;;;;;;;2.75;0.50;;;;;;;20.68;100.00;101581.28;5032048;28;20403;-51
2022/08/30 11:02:42;;;;;;;1.23;0.40;;;;;;;20.60;100.00;101576.22;5034935;28;20112;-52
2022/08/30 11:05:22;;;;;;;3.35;0.68;;;;;;;20.64;100.00;101569.31;5036553;28;20031;-50
2022/08/30 11:08:04;;;;;;;1.92;0.60;;;;;;;20.70;100.00;101581.03;5041838;28;20041;-56
2022/08/30 11:10:42;;;;;;;5.00;0.20;;;;;;;20.63;100.00;101569.56;5038846;28;20461;-56
2022/08/30 11:13:14;;;;;;;2.50;0.40;;;;;;;20.54;100.00;101577.13;5029137;28;20029;-51
2022/08/30 11:15:56;;;;;;;2.67;0.08;;;;;;;20.73;100.00;101579.75;5046010;28;20471;-54
2022/08/30 11:18:23;;;;;;;3.00;0.45;;;;;;;21.02;100.00;101570.75;5040903;28;20775;-50
2022/08/30 11:21:13;;;;;;;6.05;0.52;;;;;;;21.25;100.00;101578.03;5042014;28;20021;-54
2022/08/30 11:23:38;;;;;;;2.10;1.15;;;;;;;21.35;100.00;101574.75;5042013;28;20430;-54
2022/08/30 11:26:09;;;;;;;0.50;0.17;;;;;;;21.19;100.00;101573.56;5043024;28;20022;-52
2022/08/30 11:28:34;;;;;;;1.58;0.57;;;;;;;21.29;100.00;101576.50;5030867;28;20044;-54
2022/08/30 11:31:10;;;;;;;2.67;0.73;;;;;;;21.22;100.00;101572.28;5036548;28;20478;-50